Euro — C6AA5 — position and weather

sailwx.info

Track history (hours):
 
Tides and Currents Weather Stations Pressure Air Temp Water Temp Dewpoint Dewpoint Depression Visibility Wind Speed Wind Dir Waves Ship Positions

Euro

Last reported at 2018-Feb-13 22:05 UTC. Time now 2018-Feb-19 18:14 UTC.
Position N 44°21' E 037°11'.

Length 274 m; draft 15.6 m.

Type: Ship (hazmat cat B). MMSI: 311073800.

Date/timePositionNaut miles runAvg speedWind from/ knotsBaromVisibWave heightAir tempDewpointWater temp
2018-Feb-13 22:05N 44°21' E 037°11'312.1
2018-Feb-13 21:51N 44°23' E 037°14'412.1
2018-Feb-13 21:30N 44°25' E 037°19'612.1
2018-Feb-13 21:00N 44°28' E 037°27'611.8
2018-Feb-13 20:30N 44°31' E 037°34'611.8
2018-Feb-13 20:00N 44°34' E 037°41'3 7.0
2018-Feb-13 19:30N 44°37' E 037°43'0 0.2
2018-Feb-13 19:00N 44°37' E 037°44'0 0.6
2018-Feb-13 18:30N 44°37' E 037°43'1 2.9
2018-Feb-13 18:00N 44°35' E 037°42'3 6.4
2018-Feb-13 17:30N 44°34' E 037°38'2 4.6
2018-Feb-13 17:00N 44°33' E 037°35'1 1.0
2018-Feb-13 16:30N 44°33' E 037°35'1 1.6
2018-Feb-13 16:00N 44°34' E 037°36'3 5.8
2018-Feb-13 15:30N 44°34' E 037°40'2 3.8
2018-Feb-13 15:00N 44°34' E 037°42'0 0.8
2018-Feb-13 14:30N 44°34' E 037°42'0 0.7
2018-Feb-13 14:00N 44°34' E 037°41'0 0.8
2018-Feb-13 13:30N 44°34' E 037°41'0 0.9
2018-Feb-13 13:00N 44°34' E 037°40'0 0.8
2018-Feb-13 12:30N 44°34' E 037°40'0 0.7
2018-Feb-13 12:00N 44°34' E 037°39'0 0.6
2018-Feb-13 11:30N 44°34' E 037°39'0 0.4
2018-Feb-13 11:00N 44°34' E 037°38'0 0.5
2018-Feb-13 10:30N 44°34' E 037°38'0 0.9
2018-Feb-13 10:00N 44°34' E 037°39'2 4.0
2018-Feb-13 09:30N 44°32' E 037°41'3 5.1
2018-Feb-13 09:00N 44°30' E 037°43'2 4.8
2018-Feb-13 08:30N 44°29' E 037°45'3 6.0
2018-Feb-13 08:00N 44°27' E 037°49'0 0.9
2018-Feb-13 07:30N 44°28' E 037°49'1 1.2
2018-Feb-13 07:00N 44°28' E 037°49'1 1.2
2018-Feb-13 06:30N 44°29' E 037°48'1 1.1
2018-Feb-13 06:00N 44°29' E 037°48'1 1.2
2018-Feb-13 05:30N 44°30' E 037°47'1 1.3
2018-Feb-13 05:00N 44°30' E 037°47'1 1.2
2018-Feb-13 04:30N 44°30' E 037°46'1 1.2
2018-Feb-13 04:00N 44°31' E 037°45'1 1.2
2018-Feb-13 03:30N 44°31' E 037°45'1 1.3
2018-Feb-13 03:00N 44°32' E 037°44'1 1.3
2018-Feb-13 02:30N 44°32' E 037°43'1 1.3
2018-Feb-13 02:00N 44°32' E 037°42'1 1.3
2018-Feb-13 01:30N 44°32' E 037°41'1 1.4
2018-Feb-13 01:00N 44°33' E 037°40'1 1.3
2018-Feb-13 00:30N 44°33' E 037°40'1 1.3
2018-Feb-13 00:00N 44°33' E 037°39'1 1.3
2018-Feb-12 23:30N 44°33' E 037°38'1 1.2
2018-Feb-12 22:59N 44°33' E 037°37'1 1.2
2018-Feb-12 22:30N 44°33' E 037°36'1 1.1
2018-Feb-12 22:00N 44°33' E 037°35'0 0.8
2018-Feb-12 21:29N 44°33' E 037°35'0 0.6
2018-Feb-12 21:00N 44°33' E 037°35'2 3.9
2018-Feb-12 20:30N 44°33' E 037°38'2 4.5
2018-Feb-12 20:00N 44°32' E 037°41'3 5.7
2018-Feb-12 19:30N 44°30' E 037°44'2 3.3
2018-Feb-12 19:00N 44°30' E 037°46'4 8.5
2018-Feb-12 18:30N 44°30' E 037°52'3 6.6
2018-Feb-12 18:00N 44°30' E 037°56'1 1.0
2018-Feb-12 17:30N 44°31' E 037°57'1 1.7
2018-Feb-12 17:00N 44°31' E 037°56'1 1.9
2018-Feb-12 16:30N 44°31' E 037°54'1 2.1
2018-Feb-12 16:00N 44°31' E 037°53'1 2.3
2018-Feb-12 15:30N 44°31' E 037°51'1 2.1
2018-Feb-12 15:00N 44°31' E 037°50'1 2.0
2018-Feb-12 14:30N 44°32' E 037°48'1 2.0
2018-Feb-12 14:00N 44°32' E 037°47'1 2.1
2018-Feb-12 13:30N 44°32' E 037°46'1 2.1
2018-Feb-12 13:00N 44°32' E 037°44'1 1.9
2018-Feb-12 12:30N 44°33' E 037°43'1 1.9
2018-Feb-12 12:00N 44°33' E 037°42'1 1.7
2018-Feb-12 11:30N 44°33' E 037°40'1 2.8
2018-Feb-12 11:00N 44°34' E 037°39'2 3.1
2018-Feb-12 10:30N 44°36' E 037°40'1 1.2
2018-Feb-12 10:00N 44°35' E 037°39'1 1.2
2018-Feb-12 09:30N 44°35' E 037°39'1 1.4
2018-Feb-12 09:00N 44°34' E 037°38'1 1.3
2018-Feb-12 08:30N 44°34' E 037°37'0 0.8
2018-Feb-12 08:00N 44°34' E 037°37'3 6.3
2018-Feb-12 07:30N 44°35' E 037°41'2 4.0
2018-Feb-12 07:00N 44°37' E 037°42'2 4.6
2018-Feb-12 06:29N 44°38' E 037°39'1 1.3
2018-Feb-12 05:55N 44°38' E 037°38'0 0.0
2018-Feb-12 04:04N 44°38' E 037°38'0 0.0
2018-Feb-12 03:58N 44°38' E 037°38'0 0.1
2018-Feb-12 03:25N 44°38' E 037°38'0 0.0
2018-Feb-11 18:40N 44°38' E 037°38'0 0.0
2018-Feb-11 10:55N 44°38' E 037°38'0 0.8
2018-Feb-11 10:30N 44°37' E 037°38'2 4.0
2018-Feb-11 10:00N 44°35' E 037°40'2 3.1
2018-Feb-11 09:30N 44°35' E 037°42'3 6.3
2018-Feb-11 09:00N 44°35' E 037°46'3 6.2
2018-Feb-11 08:30N 44°34' E 037°50'2 4.8
2018-Feb-11 08:00N 44°35' E 037°53'0 0.3
2018-Feb-11 07:28N 44°35' E 037°53'0 0.3
2018-Feb-11 06:58N 44°35' E 037°53'0 0.3
2018-Feb-11 06:28N 44°35' E 037°53'0 0.0
2018-Feb-11 05:58N 44°35' E 037°53'0 0.2
2018-Feb-11 05:28N 44°35' E 037°53'0 0.2
2018-Feb-11 04:58N 44°35' E 037°53'0 0.1
2018-Feb-11 04:28N 44°35' E 037°53'0 0.0
2018-Feb-11 03:58N 44°35' E 037°53'0 0.1
2018-Feb-11 03:19N 44°35' E 037°53'0 0.2
2018-Feb-11 02:58N 44°35' E 037°53'0 0.1
2018-Feb-11 02:28N 44°35' E 037°53'0 0.0
2018-Feb-11 01:58N 44°35' E 037°53'0 0.0
2018-Feb-11 01:28N 44°35' E 037°53'0 0.0
2018-Feb-11 00:55N 44°35' E 037°53'0 0.0
2018-Feb-11 00:28N 44°35' E 037°53'0 0.1
2018-Feb-10 23:58N 44°35' E 037°53'0 0.2
2018-Feb-10 23:28N 44°35' E 037°53'0 0.4
2018-Feb-10 22:58N 44°35' E 037°53'0 0.2
2018-Feb-10 22:28N 44°35' E 037°53'0 0.1
2018-Feb-10 21:58N 44°35' E 037°53'0 0.0
2018-Feb-10 21:28N 44°35' E 037°53'0 0.0
2018-Feb-10 20:58N 44°35' E 037°53'0 0.1
2018-Feb-10 20:28N 44°35' E 037°53'0 0.0
2018-Feb-10 19:58N 44°35' E 037°53'0 0.0
2018-Feb-10 19:28N 44°35' E 037°53'0 0.1
2018-Feb-10 18:58N 44°35' E 037°53'0 0.1
2018-Feb-10 18:28N 44°35' E 037°53'0 0.0
2018-Feb-10 17:58N 44°35' E 037°53'0 0.0
2018-Feb-10 17:28N 44°35' E 037°53'0 0.0
2018-Feb-10 16:58N 44°35' E 037°53'0 0.0
2018-Feb-10 16:28N 44°35' E 037°53'0 0.1
2018-Feb-10 15:58N 44°35' E 037°53'0 0.0
2018-Feb-10 15:28N 44°35' E 037°53'0 0.0
2018-Feb-10 14:58N 44°35' E 037°53'0 0.1
2018-Feb-10 14:28N 44°35' E 037°53'0 0.1
2018-Feb-10 13:58N 44°35' E 037°53'0 0.1
2018-Feb-10 13:28N 44°35' E 037°53'0 0.1
2018-Feb-10 12:58N 44°35' E 037°53'0 0.0
2018-Feb-10 12:28N 44°35' E 037°53'0 0.0
2018-Feb-10 11:58N 44°35' E 037°53'0 0.0
2018-Feb-10 11:28N 44°35' E 037°53'0 0.0
2018-Feb-10 10:58N 44°35' E 037°53'0 0.0
2018-Feb-10 10:28N 44°35' E 037°53'0 0.0
2018-Feb-10 09:58N 44°35' E 037°53'0 0.1
2018-Feb-10 09:28N 44°35' E 037°53'0 0.0
2018-Feb-10 08:58N 44°35' E 037°53'0 0.0
2018-Feb-10 08:28N 44°35' E 037°53'0 0.0
2018-Feb-10 07:58N 44°35' E 037°53'0 0.0
2018-Feb-10 07:28N 44°35' E 037°53'0 0.1
2018-Feb-10 06:58N 44°35' E 037°53'0 0.1
2018-Feb-10 06:28N 44°35' E 037°53'0 0.0
2018-Feb-10 05:58N 44°35' E 037°53'0 0.0
2018-Feb-10 05:28N 44°35' E 037°53'0 0.0
2018-Feb-10 04:58N 44°35' E 037°53'0 0.0
2018-Feb-10 04:28N 44°35' E 037°53'0 0.0
2018-Feb-10 03:58N 44°35' E 037°53'0 0.1
2018-Feb-10 03:28N 44°35' E 037°53'0 0.0
2018-Feb-10 02:58N 44°35' E 037°53'0 0.0
2018-Feb-10 02:28N 44°35' E 037°53'0 0.0
2018-Feb-10 01:58N 44°35' E 037°53'0 0.1
2018-Feb-10 01:28N 44°35' E 037°53'0 0.0
2018-Feb-10 00:58N 44°35' E 037°53'0 0.1
2018-Feb-10 00:28N 44°35' E 037°53'0 0.0
2018-Feb-09 23:58N 44°35' E 037°53'0 0.2
2018-Feb-09 23:28N 44°35' E 037°53'0 0.1
2018-Feb-09 22:58N 44°35' E 037°53'0 0.1
2018-Feb-09 22:43N 44°35' E 037°53'  
2018-Feb-07 07:11N 41°02' E 028°60'210.0
2018-Feb-07 06:57N 40°59' E 028°60'4 8.6
2018-Feb-07 06:30N 40°56' E 028°58'611.7
2018-Feb-07 06:00N 40°52' E 028°52'5 9.9
2018-Feb-07 05:27N 40°49' E 028°46'4 6.9
2018-Feb-07 04:56N 40°46' E 028°48'2 1.4
2018-Feb-07 03:19N 40°45' E 028°51'0 0.7
2018-Feb-07 02:52N 40°45' E 028°52'0 0.7
2018-Feb-07 02:22N 40°45' E 028°52'0 0.7
2018-Feb-07 01:41N 40°45' E 028°53'0 0.7
2018-Feb-07 01:18N 40°45' E 028°53'0 0.8
2018-Feb-07 00:54N 40°45' E 028°53'0 0.9
2018-Feb-07 00:28N 40°45' E 028°54'0 1.0
2018-Feb-07 00:00N 40°45' E 028°54'0 1.0
2018-Feb-06 23:29N 40°45' E 028°55'1 1.0
2018-Feb-06 22:49N 40°45' E 028°56'0 0.8
2018-Feb-06 22:30N 40°45' E 028°56'0 0.7
2018-Feb-06 21:59N 40°45' E 028°57'0 0.8
2018-Feb-06 21:28N 40°45' E 028°57'0 0.9
2018-Feb-06 20:58N 40°46' E 028°58'0 0.9
2018-Feb-06 20:30N 40°46' E 028°58'0 0.9
2018-Feb-06 20:00N 40°46' E 028°58'0 0.9
2018-Feb-06 19:28N 40°47' E 028°58'0 1.0
2018-Feb-06 18:59N 40°47' E 028°59'1 0.9
2018-Feb-06 18:25N 40°48' E 028°59'0 0.5
2018-Feb-06 18:00N 40°48' E 028°59'3 5.1
2018-Feb-06 17:30N 40°47' E 028°55'2 3.2
2018-Feb-06 17:00N 40°47' E 028°53'1 1.1
2018-Feb-06 16:29N 40°47' E 028°54'0 0.6
2018-Feb-06 15:59N 40°47' E 028°54'0 0.5
2018-Feb-06 15:28N 40°47' E 028°55'0 0.6
2018-Feb-06 15:00N 40°47' E 028°55'0 0.6
2018-Feb-06 14:26N 40°46' E 028°56'0 0.5
2018-Feb-06 13:59N 40°46' E 028°56'0 0.5
2018-Feb-06 13:27N 40°46' E 028°56'0 0.6
2018-Feb-06 12:59N 40°46' E 028°57'0 0.5
2018-Feb-06 12:26N 40°46' E 028°57'0 0.3
2018-Feb-06 11:16N 40°46' E 028°57'7 6.6
2018-Feb-06 10:09N 40°50' E 028°49'1 3.0
2018-Feb-06 09:58N 40°49' E 028°49'1 1.3
2018-Feb-06 09:16N 40°49' E 028°50'1 1.2
2018-Feb-06 08:45N 40°48' E 028°51'0 1.1
2018-Feb-06 08:24N 40°48' E 028°51'1 1.2
2018-Feb-06 07:55N 40°48' E 028°52'1 1.3
2018-Feb-06 07:27N 40°47' E 028°52'1 1.3
2018-Feb-06 07:00N 40°47' E 028°53'1 1.2
2018-Feb-06 06:29N 40°46' E 028°54'1 1.2
2018-Feb-06 06:00N 40°46' E 028°54'1 1.8
2018-Feb-06 05:30N 40°45' E 028°54'2 5.1
2018-Feb-06 05:00N 40°43' E 028°52'3 1.0
2018-Feb-06 02:14N 40°44' E 028°48'0 0.6
2018-Feb-06 01:55N 40°44' E 028°48'0 0.4
2018-Feb-06 00:38N 40°45' E 028°48'0 0.3
2018-Feb-05 23:28N 40°45' E 028°49'0 0.3
2018-Feb-05 22:26N 40°45' E 028°49'0 0.3
2018-Feb-05 22:00N 40°45' E 028°49'0 0.4
2018-Feb-05 21:29N 40°45' E 028°49'0 0.4
2018-Feb-05 20:49N 40°46' E 028°50'0 0.4
2018-Feb-05 20:20N 40°46' E 028°50'0 0.6
2018-Feb-05 19:56N 40°46' E 028°50'0 0.5
2018-Feb-05 19:30N 40°46' E 028°50'0 0.6
2018-Feb-05 19:00N 40°46' E 028°50'0 0.6
2018-Feb-05 18:30N 40°47' E 028°51'0 0.6
2018-Feb-05 17:59N 40°47' E 028°51'0 0.6
2018-Feb-05 17:29N 40°47' E 028°51'0 0.6
2018-Feb-05 17:00N 40°47' E 028°51'0 0.8
2018-Feb-05 16:30N 40°48' E 028°51'0 1.0
2018-Feb-05 16:00N 40°48' E 028°52'1 1.2
2018-Feb-05 15:30N 40°48' E 028°52'1 1.1
2018-Feb-05 15:00N 40°48' E 028°53'1 0.9
2018-Feb-05 14:24N 40°49' E 028°54'0 0.8
2018-Feb-05 14:00N 40°49' E 028°54'0 0.7
2018-Feb-05 13:26N 40°49' E 028°55'0 0.5
2018-Feb-05 12:58N 40°49' E 028°55'0 0.5
2018-Feb-05 12:30N 40°49' E 028°55'0 0.5
2018-Feb-05 11:58N 40°49' E 028°56'0 0.1
2018-Feb-05 11:30N 40°49' E 028°56'0 0.5
2018-Feb-05 11:00N 40°49' E 028°56'0 0.8
2018-Feb-05 10:28N 40°49' E 028°57'0 0.8
2018-Feb-05 09:58N 40°49' E 028°57'0 0.8
2018-Feb-05 09:29N 40°48' E 028°58'0 0.8
2018-Feb-05 09:00N 40°48' E 028°58'0 0.7
2018-Feb-05 08:30N 40°48' E 028°58'2 3.1
2018-Feb-05 07:59N 40°46' E 028°58'1 2.8
2018-Feb-05 07:30N 40°45' E 028°57'0 0.3
2018-Feb-05 06:57N 40°45' E 028°57'0 0.3
2018-Feb-05 06:30N 40°45' E 028°57'5 4.8
2018-Feb-05 05:30N 40°50' E 028°56'2 3.0
2018-Feb-05 05:00N 40°49' E 028°58'3 5.1
2018-Feb-05 04:30N 40°47' E 028°60'1 1.2
2018-Feb-05 04:00N 40°47' E 028°60'0 0.6
2018-Feb-05 03:30N 40°46' E 028°60'0 0.7
2018-Feb-05 02:59N 40°46' E 028°60'0 0.8
2018-Feb-05 02:30N 40°46' E 029°00'0 0.7
2018-Feb-05 02:00N 40°45' E 029°00'1 2.4
2018-Feb-05 01:30N 40°47' E 029°00'3 4.6
2018-Feb-05 00:57N 40°49' E 028°59'0 0.9
2018-Feb-05 00:29N 40°49' E 028°60'1 1.1
2018-Feb-05 00:00N 40°48' E 028°60'1 1.2
2018-Feb-04 23:28N 40°48' E 029°00'1 1.3
2018-Feb-04 23:00N 40°47' E 029°01'1 1.1
2018-Feb-04 22:30N 40°47' E 029°01'1 1.7
2018-Feb-04 21:59N 40°47' E 029°00'4 7.8
2018-Feb-04 21:30N 40°48' E 028°56'2 4.4
2018-Feb-04 21:00N 40°49' E 028°53'  
Track history (hours):
 
Tides and Currents Weather Stations Pressure Air Temp Water Temp Dewpoint Dewpoint Depression Visibility Wind Speed Wind Dir Waves Ship Positions

Euro

Last reported at 2018-Feb-13 22:05 UTC. Time now 2018-Feb-19 18:14 UTC.
Position N 44°21' E 037°11'.

Length 274 m; draft 15.6 m.

Type: Ship (hazmat cat B). MMSI: 311073800.

Date/timePositionNaut miles runAvg speedWind from/ knotsBaromVisibWave heightAir tempDewpointWater temp
2018-Feb-13 22:05N 44°21' E 037°11'312.1
2018-Feb-13 21:51N 44°23' E 037°14'412.1
2018-Feb-13 21:30N 44°25' E 037°19'612.1
2018-Feb-13 21:00N 44°28' E 037°27'611.8
2018-Feb-13 20:30N 44°31' E 037°34'611.8
2018-Feb-13 20:00N 44°34' E 037°41'3 7.0
2018-Feb-13 19:30N 44°37' E 037°43'0 0.2
2018-Feb-13 19:00N 44°37' E 037°44'0 0.6
2018-Feb-13 18:30N 44°37' E 037°43'1 2.9
2018-Feb-13 18:00N 44°35' E 037°42'3 6.4
2018-Feb-13 17:30N 44°34' E 037°38'2 4.6
2018-Feb-13 17:00N 44°33' E 037°35'1 1.0
2018-Feb-13 16:30N 44°33' E 037°35'1 1.6
2018-Feb-13 16:00N 44°34' E 037°36'3 5.8
2018-Feb-13 15:30N 44°34' E 037°40'2 3.8
2018-Feb-13 15:00N 44°34' E 037°42'0 0.8
2018-Feb-13 14:30N 44°34' E 037°42'0 0.7
2018-Feb-13 14:00N 44°34' E 037°41'0 0.8
2018-Feb-13 13:30N 44°34' E 037°41'0 0.9
2018-Feb-13 13:00N 44°34' E 037°40'0 0.8
2018-Feb-13 12:30N 44°34' E 037°40'0 0.7
2018-Feb-13 12:00N 44°34' E 037°39'0 0.6
2018-Feb-13 11:30N 44°34' E 037°39'0 0.4
2018-Feb-13 11:00N 44°34' E 037°38'0 0.5
2018-Feb-13 10:30N 44°34' E 037°38'0 0.9
2018-Feb-13 10:00N 44°34' E 037°39'2 4.0
2018-Feb-13 09:30N 44°32' E 037°41'3 5.1
2018-Feb-13 09:00N 44°30' E 037°43'2 4.8
2018-Feb-13 08:30N 44°29' E 037°45'3 6.0
2018-Feb-13 08:00N 44°27' E 037°49'0 0.9
2018-Feb-13 07:30N 44°28' E 037°49'1 1.2
2018-Feb-13 07:00N 44°28' E 037°49'1 1.2
2018-Feb-13 06:30N 44°29' E 037°48'1 1.1
2018-Feb-13 06:00N 44°29' E 037°48'1 1.2
2018-Feb-13 05:30N 44°30' E 037°47'1 1.3
2018-Feb-13 05:00N 44°30' E 037°47'1 1.2
2018-Feb-13 04:30N 44°30' E 037°46'1 1.2
2018-Feb-13 04:00N 44°31' E 037°45'1 1.2
2018-Feb-13 03:30N 44°31' E 037°45'1 1.3
2018-Feb-13 03:00N 44°32' E 037°44'1 1.3
2018-Feb-13 02:30N 44°32' E 037°43'1 1.3
2018-Feb-13 02:00N 44°32' E 037°42'1 1.3
2018-Feb-13 01:30N 44°32' E 037°41'1 1.4
2018-Feb-13 01:00N 44°33' E 037°40'1 1.3
2018-Feb-13 00:30N 44°33' E 037°40'1 1.3
2018-Feb-13 00:00N 44°33' E 037°39'1 1.3
2018-Feb-12 23:30N 44°33' E 037°38'1 1.2
2018-Feb-12 22:59N 44°33' E 037°37'1 1.2
2018-Feb-12 22:30N 44°33' E 037°36'1 1.1
2018-Feb-12 22:00N 44°33' E 037°35'0 0.8
2018-Feb-12 21:29N 44°33' E 037°35'0 0.6
2018-Feb-12 21:00N 44°33' E 037°35'2 3.9
2018-Feb-12 20:30N 44°33' E 037°38'2 4.5
2018-Feb-12 20:00N 44°32' E 037°41'3 5.7
2018-Feb-12 19:30N 44°30' E 037°44'2 3.3
2018-Feb-12 19:00N 44°30' E 037°46'4 8.5
2018-Feb-12 18:30N 44°30' E 037°52'3 6.6
2018-Feb-12 18:00N 44°30' E 037°56'1 1.0
2018-Feb-12 17:30N 44°31' E 037°57'1 1.7
2018-Feb-12 17:00N 44°31' E 037°56'1 1.9
2018-Feb-12 16:30N 44°31' E 037°54'1 2.1
2018-Feb-12 16:00N 44°31' E 037°53'1 2.3
2018-Feb-12 15:30N 44°31' E 037°51'1 2.1
2018-Feb-12 15:00N 44°31' E 037°50'1 2.0
2018-Feb-12 14:30N 44°32' E 037°48'1 2.0
2018-Feb-12 14:00N 44°32' E 037°47'1 2.1
2018-Feb-12 13:30N 44°32' E 037°46'1 2.1
2018-Feb-12 13:00N 44°32' E 037°44'1 1.9
2018-Feb-12 12:30N 44°33' E 037°43'1 1.9
2018-Feb-12 12:00N 44°33' E 037°42'1 1.7
2018-Feb-12 11:30N 44°33' E 037°40'1 2.8
2018-Feb-12 11:00N 44°34' E 037°39'2 3.1
2018-Feb-12 10:30N 44°36' E 037°40'1 1.2
2018-Feb-12 10:00N 44°35' E 037°39'1 1.2
2018-Feb-12 09:30N 44°35' E 037°39'1 1.4
2018-Feb-12 09:00N 44°34' E 037°38'1 1.3
2018-Feb-12 08:30N 44°34' E 037°37'0 0.8
2018-Feb-12 08:00N 44°34' E 037°37'3 6.3
2018-Feb-12 07:30N 44°35' E 037°41'2 4.0
2018-Feb-12 07:00N 44°37' E 037°42'2 4.6
2018-Feb-12 06:29N 44°38' E 037°39'1 1.3
2018-Feb-12 05:55N 44°38' E 037°38'0 0.0
2018-Feb-12 04:04N 44°38' E 037°38'0 0.0
2018-Feb-12 03:58N 44°38' E 037°38'0 0.1
2018-Feb-12 03:25N 44°38' E 037°38'0 0.0
2018-Feb-11 18:40N 44°38' E 037°38'0 0.0
2018-Feb-11 10:55N 44°38' E 037°38'0 0.8
2018-Feb-11 10:30N 44°37' E 037°38'2 4.0
2018-Feb-11 10:00N 44°35' E 037°40'2 3.1
2018-Feb-11 09:30N 44°35' E 037°42'3 6.3
2018-Feb-11 09:00N 44°35' E 037°46'3 6.2
2018-Feb-11 08:30N 44°34' E 037°50'2 4.8
2018-Feb-11 08:00N 44°35' E 037°53'0 0.3
2018-Feb-11 07:28N 44°35' E 037°53'0 0.3
2018-Feb-11 06:58N 44°35' E 037°53'0 0.3
2018-Feb-11 06:28N 44°35' E 037°53'0 0.0
2018-Feb-11 05:58N 44°35' E 037°53'0 0.2
2018-Feb-11 05:28N 44°35' E 037°53'0 0.2
2018-Feb-11 04:58N 44°35' E 037°53'0 0.1
2018-Feb-11 04:28N 44°35' E 037°53'0 0.0
2018-Feb-11 03:58N 44°35' E 037°53'0 0.1
2018-Feb-11 03:19N 44°35' E 037°53'0 0.2
2018-Feb-11 02:58N 44°35' E 037°53'0 0.1
2018-Feb-11 02:28N 44°35' E 037°53'0 0.0
2018-Feb-11 01:58N 44°35' E 037°53'0 0.0
2018-Feb-11 01:28N 44°35' E 037°53'0 0.0
2018-Feb-11 00:55N 44°35' E 037°53'0 0.0
2018-Feb-11 00:28N 44°35' E 037°53'0 0.1
2018-Feb-10 23:58N 44°35' E 037°53'0 0.2
2018-Feb-10 23:28N 44°35' E 037°53'0 0.4
2018-Feb-10 22:58N 44°35' E 037°53'0 0.2
2018-Feb-10 22:28N 44°35' E 037°53'0 0.1
2018-Feb-10 21:58N 44°35' E 037°53'0 0.0
2018-Feb-10 21:28N 44°35' E 037°53'0 0.0
2018-Feb-10 20:58N 44°35' E 037°53'0 0.1
2018-Feb-10 20:28N 44°35' E 037°53'0 0.0
2018-Feb-10 19:58N 44°35' E 037°53'0 0.0
2018-Feb-10 19:28N 44°35' E 037°53'0 0.1
2018-Feb-10 18:58N 44°35' E 037°53'0 0.1
2018-Feb-10 18:28N 44°35' E 037°53'0 0.0
2018-Feb-10 17:58N 44°35' E 037°53'0 0.0
2018-Feb-10 17:28N 44°35' E 037°53'0 0.0
2018-Feb-10 16:58N 44°35' E 037°53'0 0.0
2018-Feb-10 16:28N 44°35' E 037°53'0 0.1
2018-Feb-10 15:58N 44°35' E 037°53'0 0.0
2018-Feb-10 15:28N 44°35' E 037°53'0 0.0
2018-Feb-10 14:58N 44°35' E 037°53'0 0.1
2018-Feb-10 14:28N 44°35' E 037°53'0 0.1
2018-Feb-10 13:58N 44°35' E 037°53'0 0.1
2018-Feb-10 13:28N 44°35' E 037°53'0 0.1
2018-Feb-10 12:58N 44°35' E 037°53'0 0.0
2018-Feb-10 12:28N 44°35' E 037°53'0 0.0
2018-Feb-10 11:58N 44°35' E 037°53'0 0.0
2018-Feb-10 11:28N 44°35' E 037°53'0 0.0
2018-Feb-10 10:58N 44°35' E 037°53'0 0.0
2018-Feb-10 10:28N 44°35' E 037°53'0 0.0
2018-Feb-10 09:58N 44°35' E 037°53'0 0.1
2018-Feb-10 09:28N 44°35' E 037°53'0 0.0
2018-Feb-10 08:58N 44°35' E 037°53'0 0.0
2018-Feb-10 08:28N 44°35' E 037°53'0 0.0
2018-Feb-10 07:58N 44°35' E 037°53'0 0.0
2018-Feb-10 07:28N 44°35' E 037°53'0 0.1
2018-Feb-10 06:58N 44°35' E 037°53'0 0.1
2018-Feb-10 06:28N 44°35' E 037°53'0 0.0
2018-Feb-10 05:58N 44°35' E 037°53'0 0.0
2018-Feb-10 05:28N 44°35' E 037°53'0 0.0
2018-Feb-10 04:58N 44°35' E 037°53'0 0.0
2018-Feb-10 04:28N 44°35' E 037°53'0 0.0
2018-Feb-10 03:58N 44°35' E 037°53'0 0.1
2018-Feb-10 03:28N 44°35' E 037°53'0 0.0
2018-Feb-10 02:58N 44°35' E 037°53'0 0.0
2018-Feb-10 02:28N 44°35' E 037°53'0 0.0
2018-Feb-10 01:58N 44°35' E 037°53'0 0.1
2018-Feb-10 01:28N 44°35' E 037°53'0 0.0
2018-Feb-10 00:58N 44°35' E 037°53'0 0.1
2018-Feb-10 00:28N 44°35' E 037°53'0 0.0
2018-Feb-09 23:58N 44°35' E 037°53'0 0.2
2018-Feb-09 23:28N 44°35' E 037°53'0 0.1
2018-Feb-09 22:58N 44°35' E 037°53'0 0.1
2018-Feb-09 22:43N 44°35' E 037°53'  
2018-Feb-07 07:11N 41°02' E 028°60'210.0
2018-Feb-07 06:57N 40°59' E 028°60'4 8.6
2018-Feb-07 06:30N 40°56' E 028°58'611.7
2018-Feb-07 06:00N 40°52' E 028°52'5 9.9
2018-Feb-07 05:27N 40°49' E 028°46'4 6.9
2018-Feb-07 04:56N 40°46' E 028°48'2 1.4
2018-Feb-07 03:19N 40°45' E 028°51'0 0.7
2018-Feb-07 02:52N 40°45' E 028°52'0 0.7
2018-Feb-07 02:22N 40°45' E 028°52'0 0.7
2018-Feb-07 01:41N 40°45' E 028°53'0 0.7
2018-Feb-07 01:18N 40°45' E 028°53'0 0.8
2018-Feb-07 00:54N 40°45' E 028°53'0 0.9
2018-Feb-07 00:28N 40°45' E 028°54'0 1.0
2018-Feb-07 00:00N 40°45' E 028°54'0 1.0
2018-Feb-06 23:29N 40°45' E 028°55'1 1.0
2018-Feb-06 22:49N 40°45' E 028°56'0 0.8
2018-Feb-06 22:30N 40°45' E 028°56'0 0.7
2018-Feb-06 21:59N 40°45' E 028°57'0 0.8
2018-Feb-06 21:28N 40°45' E 028°57'0 0.9
2018-Feb-06 20:58N 40°46' E 028°58'0 0.9
2018-Feb-06 20:30N 40°46' E 028°58'0 0.9
2018-Feb-06 20:00N 40°46' E 028°58'0 0.9
2018-Feb-06 19:28N 40°47' E 028°58'0 1.0
2018-Feb-06 18:59N 40°47' E 028°59'1 0.9
2018-Feb-06 18:25N 40°48' E 028°59'0 0.5
2018-Feb-06 18:00N 40°48' E 028°59'3 5.1
2018-Feb-06 17:30N 40°47' E 028°55'2 3.2
2018-Feb-06 17:00N 40°47' E 028°53'1 1.1
2018-Feb-06 16:29N 40°47' E 028°54'0 0.6
2018-Feb-06 15:59N 40°47' E 028°54'0 0.5
2018-Feb-06 15:28N 40°47' E 028°55'0 0.6
2018-Feb-06 15:00N 40°47' E 028°55'0 0.6
2018-Feb-06 14:26N 40°46' E 028°56'0 0.5
2018-Feb-06 13:59N 40°46' E 028°56'0 0.5
2018-Feb-06 13:27N 40°46' E 028°56'0 0.6
2018-Feb-06 12:59N 40°46' E 028°57'0 0.5
2018-Feb-06 12:26N 40°46' E 028°57'0 0.3
2018-Feb-06 11:16N 40°46' E 028°57'7 6.6
2018-Feb-06 10:09N 40°50' E 028°49'1 3.0
2018-Feb-06 09:58N 40°49' E 028°49'1 1.3
2018-Feb-06 09:16N 40°49' E 028°50'1 1.2
2018-Feb-06 08:45N 40°48' E 028°51'0 1.1
2018-Feb-06 08:24N 40°48' E 028°51'1 1.2
2018-Feb-06 07:55N 40°48' E 028°52'1 1.3
2018-Feb-06 07:27N 40°47' E 028°52'1 1.3
2018-Feb-06 07:00N 40°47' E 028°53'1 1.2
2018-Feb-06 06:29N 40°46' E 028°54'1 1.2
2018-Feb-06 06:00N 40°46' E 028°54'1 1.8
2018-Feb-06 05:30N 40°45' E 028°54'2 5.1
2018-Feb-06 05:00N 40°43' E 028°52'3 1.0
2018-Feb-06 02:14N 40°44' E 028°48'0 0.6
2018-Feb-06 01:55N 40°44' E 028°48'0 0.4
2018-Feb-06 00:38N 40°45' E 028°48'0 0.3
2018-Feb-05 23:28N 40°45' E 028°49'0 0.3
2018-Feb-05 22:26N 40°45' E 028°49'0 0.3
2018-Feb-05 22:00N 40°45' E 028°49'0 0.4
2018-Feb-05 21:29N 40°45' E 028°49'0 0.4
2018-Feb-05 20:49N 40°46' E 028°50'0 0.4
2018-Feb-05 20:20N 40°46' E 028°50'0 0.6
2018-Feb-05 19:56N 40°46' E 028°50'0 0.5
2018-Feb-05 19:30N 40°46' E 028°50'0 0.6
2018-Feb-05 19:00N 40°46' E 028°50'0 0.6
2018-Feb-05 18:30N 40°47' E 028°51'0 0.6
2018-Feb-05 17:59N 40°47' E 028°51'0 0.6
2018-Feb-05 17:29N 40°47' E 028°51'0 0.6
2018-Feb-05 17:00N 40°47' E 028°51'0 0.8
2018-Feb-05 16:30N 40°48' E 028°51'0 1.0
2018-Feb-05 16:00N 40°48' E 028°52'1 1.2
2018-Feb-05 15:30N 40°48' E 028°52'1 1.1
2018-Feb-05 15:00N 40°48' E 028°53'1 0.9
2018-Feb-05 14:24N 40°49' E 028°54'0 0.8
2018-Feb-05 14:00N 40°49' E 028°54'0 0.7
2018-Feb-05 13:26N 40°49' E 028°55'0 0.5
2018-Feb-05 12:58N 40°49' E 028°55'0 0.5
2018-Feb-05 12:30N 40°49' E 028°55'0 0.5
2018-Feb-05 11:58N 40°49' E 028°56'0 0.1
2018-Feb-05 11:30N 40°49' E 028°56'0 0.5
2018-Feb-05 11:00N 40°49' E 028°56'0 0.8
2018-Feb-05 10:28N 40°49' E 028°57'0 0.8
2018-Feb-05 09:58N 40°49' E 028°57'0 0.8
2018-Feb-05 09:29N 40°48' E 028°58'0 0.8
2018-Feb-05 09:00N 40°48' E 028°58'0 0.7
2018-Feb-05 08:30N 40°48' E 028°58'2 3.1
2018-Feb-05 07:59N 40°46' E 028°58'1 2.8
2018-Feb-05 07:30N 40°45' E 028°57'0 0.3
2018-Feb-05 06:57N 40°45' E 028°57'0 0.3
2018-Feb-05 06:30N 40°45' E 028°57'5 4.8
2018-Feb-05 05:30N 40°50' E 028°56'2 3.0
2018-Feb-05 05:00N 40°49' E 028°58'3 5.1
2018-Feb-05 04:30N 40°47' E 028°60'1 1.2
2018-Feb-05 04:00N 40°47' E 028°60'0 0.6
2018-Feb-05 03:30N 40°46' E 028°60'0 0.7
2018-Feb-05 02:59N 40°46' E 028°60'0 0.8
2018-Feb-05 02:30N 40°46' E 029°00'0 0.7
2018-Feb-05 02:00N 40°45' E 029°00'1 2.4
2018-Feb-05 01:30N 40°47' E 029°00'3 4.6
2018-Feb-05 00:57N 40°49' E 028°59'0 0.9
2018-Feb-05 00:29N 40°49' E 028°60'1 1.1
2018-Feb-05 00:00N 40°48' E 028°60'1 1.2
2018-Feb-04 23:28N 40°48' E 029°00'1 1.3
2018-Feb-04 23:00N 40°47' E 029°01'1 1.1
2018-Feb-04 22:30N 40°47' E 029°01'1 1.7
2018-Feb-04 21:59N 40°47' E 029°00'4 7.8
2018-Feb-04 21:30N 40°48' E 028°56'2 4.4
2018-Feb-04 21:00N 40°49' E 028°53'  

Dump ship's entire track history